sensor_id;sensor_type;location;lat;lon;timestamp;pressure;altitude;pressure_sealevel;temperature;humidity
70133;BME280;57495;49.922;7.966;2023-07-29T00:01:12;99339.22;;;18.40;100.00
70133;BME280;57495;49.922;7.966;2023-07-29T00:03:13;99340.25;;;18.39;100.00
70133;BME280;57495;49.922;7.966;2023-07-29T00:05:15;99337.53;;;18.39;100.00
70133;BME280;57495;49.922;7.966;2023-07-29T00:07:16;99337.34;;;18.40;100.00
70133;BME280;57495;49.922;7.966;2023-07-29T00:09:16;99329.41;;;18.39;100.00
70133;BME280;57495;49.922;7.966;2023-07-29T00:11:19;99317.97;;;18.37;100.00
70133;BME280;57495;49.922;7.966;2023-07-29T00:13:20;99334.00;;;18.31;100.00
70133;BME280;57495;49.922;7.966;2023-07-29T00:15:21;99329.22;;;18.33;100.00
70133;BME280;57495;49.922;7.966;2023-07-29T00:17:22;99334.63;;;18.33;100.00
70133;BME280;57495;49.922;7.966;2023-07-29T00:19:24;99338.41;;;18.32;100.00
70133;BME280;57495;49.922;7.966;2023-07-29T00:21:25;99337.13;;;18.35;100.00
70133;BME280;57495;49.922;7.966;2023-07-29T00:23:27;99336.31;;;18.34;100.00
70133;BME280;57495;49.922;7.966;2023-07-29T00:25:28;99320.06;;;18.34;100.00
70133;BME280;57495;49.922;7.966;2023-07-29T00:27:31;99321.28;;;18.39;100.00
70133;BME280;57495;49.922;7.966;2023-07-29T00:29:31;99319.63;;;18.38;100.00
70133;BME280;57495;49.922;7.966;2023-07-29T00:31:33;99317.13;;;18.43;100.00
70133;BME280;57495;49.922;7.966;2023-07-29T00:33:34;99320.28;;;18.40;100.00
70133;BME280;57495;49.922;7.966;2023-07-29T00:35:35;99316.72;;;18.39;100.00
70133;BME280;57495;49.922;7.966;2023-07-29T00:37:37;99312.97;;;18.40;100.00
70133;BME280;57495;49.922;7.966;2023-07-29T00:39:38;99319.41;;;18.46;100.00
70133;BME280;57495;49.922;7.966;2023-07-29T00:41:40;99312.16;;;18.40;100.00
70133;BME280;57495;49.922;7.966;2023-07-29T00:43:43;99305.88;;;18.39;100.00
70133;BME280;57495;49.922;7.966;2023-07-29T00:45:44;99303.38;;;18.38;100.00
70133;BME280;57495;49.922;7.966;2023-07-29T00:47:46;99294.22;;;18.39;100.00
70133;BME280;57495;49.922;7.966;2023-07-29T00:49:49;99284.66;;;18.36;100.00
70133;BME280;57495;49.922;7.966;2023-07-29T00:51:50;99282.97;;;18.28;100.00
70133;BME280;57495;49.922;7.966;2023-07-29T00:53:51;99275.94;;;18.27;100.00
70133;BME280;57495;49.922;7.966;2023-07-29T00:55:52;99273.00;;;18.29;100.00
70133;BME280;57495;49.922;7.966;2023-07-29T00:57:54;99273.84;;;18.29;100.00
70133;BME280;57495;49.922;7.966;2023-07-29T00:59:57;99274.44;;;18.31;100.00
70133;BME280;57495;49.922;7.966;2023-07-29T01:01:59;99289.66;;;18.32;100.00
70133;BME280;57495;49.922;7.966;2023-07-29T01:04:00;99285.53;;;18.23;100.00
70133;BME280;57495;49.922;7.966;2023-07-29T01:06:09;99289.25;;;18.22;100.00
70133;BME280;57495;49.922;7.966;2023-07-29T01:08:21;99297.59;;;18.14;100.00
70133;BME280;57495;49.922;7.966;2023-07-29T01:10:31;99293.63;;;18.16;100.00
70133;BME280;57495;49.922;7.966;2023-07-29T01:12:45;99295.53;;;18.16;100.00
70133;BME280;57495;49.922;7.966;2023-07-29T01:14:55;99304.25;;;18.18;100.00
70133;BME280;57495;49.922;7.966;2023-07-29T01:17:03;99293.03;;;18.21;100.00
70133;BME280;57495;49.922;7.966;2023-07-29T01:19:13;99294.25;;;18.25;100.00
70133;BME280;57495;49.922;7.966;2023-07-29T01:21:21;99297.59;;;18.27;100.00
70133;BME280;57495;49.922;7.966;2023-07-29T01:23:25;99278.63;;;18.27;100.00
70133;BME280;57495;49.922;7.966;2023-07-29T01:25:26;99275.31;;;18.25;100.00
70133;BME280;57495;49.922;7.966;2023-07-29T01:27:28;99275.31;;;18.25;100.00
70133;BME280;57495;49.922;7.966;2023-07-29T01:29:28;99270.94;;;18.24;100.00
70133;BME280;57495;49.922;7.966;2023-07-29T01:31:33;99275.94;;;18.27;100.00
70133;BME280;57495;49.922;7.966;2023-07-29T01:33:40;99277.56;;;18.28;100.00
70133;BME280;57495;49.922;7.966;2023-07-29T01:35:47;99283.41;;;18.32;100.00
70133;BME280;57495;49.922;7.966;2023-07-29T01:37:52;99279.66;;;18.33;100.00
70133;BME280;57495;49.922;7.966;2023-07-29T01:39:58;99275.50;;;18.30;100.00
70133;BME280;57495;49.922;7.966;2023-07-29T01:42:01;99276.13;;;18.32;100.00
70133;BME280;57495;49.922;7.966;2023-07-29T01:44:03;99279.44;;;18.34;100.00
70133;BME280;57495;49.922;7.966;2023-07-29T01:46:05;99279.88;;;18.38;100.00
70133;BME280;57495;49.922;7.966;2023-07-29T01:48:07;99280.69;;;18.39;100.00
70133;BME280;57495;49.922;7.966;2023-07-29T01:50:09;99282.38;;;18.40;100.00
70133;BME280;57495;49.922;7.966;2023-07-29T01:52:11;99284.25;;;18.32;100.00
70133;BME280;57495;49.922;7.966;2023-07-29T01:54:12;99284.47;;;18.11;100.00
70133;BME280;57495;49.922;7.966;2023-07-29T01:56:15;99288.22;;;18.10;100.00
70133;BME280;57495;49.922;7.966;2023-07-29T01:58:16;99279.91;;;18.18;100.00
70133;BME280;57495;49.922;7.966;2023-07-29T02:00:18;99271.38;;;18.21;100.00
70133;BME280;57495;49.922;7.966;2023-07-29T02:02:19;99275.50;;;18.24;100.00
70133;BME280;57495;49.922;7.966;2023-07-29T02:04:21;99272.63;;;18.05;100.00
70133;BME280;57495;49.922;7.966;2023-07-29T02:06:23;99263.88;;;18.10;100.00
70133;BME280;57495;49.922;7.966;2023-07-29T02:08:23;99263.25;;;18.14;100.00
70133;BME280;57495;49.922;7.966;2023-07-29T02:10:24;99268.03;;;18.12;100.00
70133;BME280;57495;49.922;7.966;2023-07-29T02:12:27;99262.63;;;18.12;100.00
70133;BME280;57495;49.922;7.966;2023-07-29T02:14:29;99263.66;;;18.18;100.00
70133;BME280;57495;49.922;7.966;2023-07-29T02:16:30;99265.09;;;18.21;100.00
70133;BME280;57495;49.922;7.966;2023-07-29T02:18:32;99265.50;;;18.24;100.00
70133;BME280;57495;49.922;7.966;2023-07-29T02:20:34;99255.50;;;18.25;100.00
70133;BME280;57495;49.922;7.966;2023-07-29T02:22:35;99253.03;;;18.23;100.00
70133;BME280;57495;49.922;7.966;2023-07-29T02:24:37;99250.50;;;18.28;100.00
70133;BME280;57495;49.922;7.966;2023-07-29T02:26:38;99250.50;;;18.28;100.00
70133;BME280;57495;49.922;7.966;2023-07-29T02:28:41;99229.91;;;18.21;100.00
70133;BME280;57495;49.922;7.966;2023-07-29T02:30:42;99245.94;;;18.22;100.00
70133;BME280;57495;49.922;7.966;2023-07-29T02:32:45;99244.31;;;18.21;100.00
70133;BME280;57495;49.922;7.966;2023-07-29T02:34:46;99249.31;;;18.18;100.00
70133;BME280;57495;49.922;7.966;2023-07-29T02:36:47;99236.81;;;18.10;100.00
70133;BME280;57495;49.922;7.966;2023-07-29T02:38:49;99233.06;;;18.11;100.00
70133;BME280;57495;49.922;7.966;2023-07-29T02:40:50;99231.41;;;18.10;100.00
70133;BME280;57495;49.922;7.966;2023-07-29T02:42:52;99225.97;;;18.10;100.00
70133;BME280;57495;49.922;7.966;2023-07-29T02:44:54;99234.34;;;18.08;100.00
70133;BME280;57495;49.922;7.966;2023-07-29T02:46:56;99231.84;;;18.07;100.00
70133;BME280;57495;49.922;7.966;2023-07-29T02:48:57;99230.78;;;18.08;100.00
70133;BME280;57495;49.922;7.966;2023-07-29T02:50:59;99230.16;;;18.06;100.00
70133;BME280;57495;49.922;7.966;2023-07-29T02:53:00;99231.44;;;18.03;100.00
70133;BME280;57495;49.922;7.966;2023-07-29T02:55:02;99238.06;;;18.01;100.00
70133;BME280;57495;49.922;7.966;2023-07-29T02:57:04;99230.59;;;17.96;100.00
70133;BME280;57495;49.922;7.966;2023-07-29T02:59:05;99228.31;;;17.93;100.00
70133;BME280;57495;49.922;7.966;2023-07-29T03:01:08;99235.19;;;17.95;100.00
70133;BME280;57495;49.922;7.966;2023-07-29T03:03:09;99231.44;;;17.90;100.00
70133;BME280;57495;49.922;7.966;2023-07-29T03:05:11;99228.09;;;17.81;100.00
70133;BME280;57495;49.922;7.966;2023-07-29T03:07:12;99236.81;;;17.83;100.00
70133;BME280;57495;49.922;7.966;2023-07-29T03:09:14;99232.88;;;17.86;100.00
70133;BME280;57495;49.922;7.966;2023-07-29T03:11:16;99244.75;;;17.71;100.00
70133;BME280;57495;49.922;7.966;2023-07-29T03:13:17;99233.09;;;17.64;100.00
70133;BME280;57495;49.922;7.966;2023-07-29T03:15:19;99231.66;;;17.75;100.00
70133;BME280;57495;49.922;7.966;2023-07-29T03:17:22;99231.00;;;17.80;100.00
70133;BME280;57495;49.922;7.966;2023-07-29T03:19:23;99226.00;;;17.83;100.00
70133;BME280;57495;49.922;7.966;2023-07-29T03:21:25;99221.41;;;17.84;100.00
70133;BME280;57495;49.922;7.966;2023-07-29T03:23:27;99217.28;;;17.81;100.00
70133;BME280;57495;49.922;7.966;2023-07-29T03:25:29;99216.03;;;17.77;100.00
70133;BME280;57495;49.922;7.966;2023-07-29T03:27:30;99215.81;;;17.78;100.00
70133;BME280;57495;49.922;7.966;2023-07-29T03:29:31;99212.72;;;17.75;100.00
70133;BME280;57495;49.922;7.966;2023-07-29T03:31:33;99213.94;;;17.72;100.00
70133;BME280;57495;49.922;7.966;2023-07-29T03:33:36;99209.59;;;17.65;100.00
70133;BME280;57495;49.922;7.966;2023-07-29T03:35:37;99210.41;;;17.65;100.00
70133;BME280;57495;49.922;7.966;2023-07-29T03:37:39;99206.88;;;17.65;100.00
70133;BME280;57495;49.922;7.966;2023-07-29T03:39:40;99197.75;;;17.66;100.00
70133;BME280;57495;49.922;7.966;2023-07-29T03:41:42;99193.78;;;17.68;100.00
70133;BME280;57495;49.922;7.966;2023-07-29T03:43:43;99193.56;;;17.70;100.00
70133;BME280;57495;49.922;7.966;2023-07-29T03:45:45;99200.44;;;17.66;100.00
70133;BME280;57495;49.922;7.966;2023-07-29T03:47:46;99190.25;;;17.68;100.00
70133;BME280;57495;49.922;7.966;2023-07-29T03:49:48;99188.16;;;17.70;100.00
70133;BME280;57495;49.922;7.966;2023-07-29T03:51:50;99196.47;;;17.68;100.00
70133;BME280;57495;49.922;7.966;2023-07-29T03:53:51;99202.31;;;17.58;100.00
70133;BME280;57495;49.922;7.966;2023-07-29T03:55:52;99194.41;;;17.50;100.00
70133;BME280;57495;49.922;7.966;2023-07-29T03:57:54;99204.00;;;17.53;100.00
70133;BME280;57495;49.922;7.966;2023-07-29T03:59:55;99197.72;;;17.52;100.00
70133;BME280;57495;49.922;7.966;2023-07-29T04:01:57;99201.06;;;17.48;100.00
70133;BME280;57495;49.922;7.966;2023-07-29T04:03:59;99208.53;;;17.52;100.00
70133;BME280;57495;49.922;7.966;2023-07-29T04:06:01;99203.97;;;17.46;100.00
70133;BME280;57495;49.922;7.966;2023-07-29T04:08:03;99206.06;;;17.44;100.00
70133;BME280;57495;49.922;7.966;2023-07-29T04:10:06;99206.91;;;17.51;100.00
70133;BME280;57495;49.922;7.966;2023-07-29T04:12:07;99200.63;;;17.57;100.00
70133;BME280;57495;49.922;7.966;2023-07-29T04:14:08;99201.25;;;17.59;100.00
70133;BME280;57495;49.922;7.966;2023-07-29T04:16:09;99202.28;;;17.65;100.00
70133;BME280;57495;49.922;7.966;2023-07-29T04:18:11;99199.78;;;17.64;100.00
70133;BME280;57495;49.922;7.966;2023-07-29T04:20:12;99200.84;;;17.63;100.00
70133;BME280;57495;49.922;7.966;2023-07-29T04:22:15;99208.56;;;17.66;100.00
70133;BME280;57495;49.922;7.966;2023-07-29T04:24:17;99208.13;;;17.69;100.00
70133;BME280;57495;49.922;7.966;2023-07-29T04:26:20;99207.09;;;17.70;100.00
70133;BME280;57495;49.922;7.966;2023-07-29T04:28:21;99203.56;;;17.69;100.00
70133;BME280;57495;49.922;7.966;2023-07-29T04:30:23;99205.00;;;17.72;100.00
70133;BME280;57495;49.922;7.966;2023-07-29T04:32:23;99211.66;;;17.76;100.00
70133;BME280;57495;49.922;7.966;2023-07-29T04:34:26;99203.75;;;17.81;100.00
70133;BME280;57495;49.922;7.966;2023-07-29T04:36:27;99207.06;;;17.83;100.00
70133;BME280;57495;49.922;7.966;2023-07-29T04:38:30;99212.72;;;17.88;100.00
70133;BME280;57495;49.922;7.966;2023-07-29T04:40:32;99214.97;;;17.91;100.00
70133;BME280;57495;49.922;7.966;2023-07-29T04:42:34;99209.78;;;17.96;100.00
70133;BME280;57495;49.922;7.966;2023-07-29T04:44:35;99203.97;;;18.00;100.00
70133;BME280;57495;49.922;7.966;2023-07-29T04:46:37;99196.03;;;18.05;100.00
70133;BME280;57495;49.922;7.966;2023-07-29T04:48:38;99192.06;;;18.07;100.00
70133;BME280;57495;49.922;7.966;2023-07-29T04:50:40;99198.72;;;18.11;100.00
70133;BME280;57495;49.922;7.966;2023-07-29T04:52:41;99197.47;;;18.14;100.00
70133;BME280;57495;49.922;7.966;2023-07-29T04:54:44;99188.91;;;18.17;100.00
70133;BME280;57495;49.922;7.966;2023-07-29T04:56:45;99185.19;;;18.18;100.00
70133;BME280;57495;49.922;7.966;2023-07-29T04:58:46;99183.50;;;18.17;100.00
70133;BME280;57495;49.922;7.966;2023-07-29T05:00:47;99192.72;;;17.96;100.00
70133;BME280;57495;49.922;7.966;2023-07-29T05:02:49;99204.78;;;18.00;100.00
70133;BME280;57495;49.922;7.966;2023-07-29T05:04:50;99205.22;;;17.90;100.00
70133;BME280;57495;49.922;7.966;2023-07-29T05:06:52;99202.72;;;17.89;100.00
70133;BME280;57495;49.922;7.966;2023-07-29T05:08:53;99197.31;;;17.95;100.00
70133;BME280;57495;49.922;7.966;2023-07-29T05:10:56;99192.94;;;18.01;100.00
70133;BME280;57495;49.922;7.966;2023-07-29T05:12:57;99190.63;;;18.05;100.00
70133;BME280;57495;49.922;7.966;2023-07-29T05:14:59;99187.47;;;18.08;100.00
70133;BME280;57495;49.922;7.966;2023-07-29T05:17:00;99195.59;;;18.08;100.00
70133;BME280;57495;49.922;7.966;2023-07-29T05:19:01;99206.88;;;18.05;100.00
70133;BME280;57495;49.922;7.966;2023-07-29T05:21:03;99203.91;;;18.13;100.00
70133;BME280;57495;49.922;7.966;2023-07-29T05:23:04;99203.72;;;18.14;100.00
70133;BME280;57495;49.922;7.966;2023-07-29T05:25:07;99207.69;;;18.05;100.00
70133;BME280;57495;49.922;7.966;2023-07-29T05:27:09;99216.88;;;17.98;100.00
70133;BME280;57495;49.922;7.966;2023-07-29T05:29:10;99214.38;;;18.03;100.00
70133;BME280;57495;49.922;7.966;2023-07-29T05:31:11;99228.09;;;17.94;100.00
70133;BME280;57495;49.922;7.966;2023-07-29T05:33:13;99268.88;;;18.00;100.00
70133;BME280;57495;49.922;7.966;2023-07-29T05:35:14;99243.47;;;18.01;100.00
70133;BME280;57495;49.922;7.966;2023-07-29T05:37:16;99226.63;;;17.99;100.00
70133;BME280;57495;49.922;7.966;2023-07-29T05:39:17;99235.16;;;17.69;100.00
70133;BME280;57495;49.922;7.966;2023-07-29T05:41:19;99234.75;;;17.72;100.00
70133;BME280;57495;49.922;7.966;2023-07-29T05:43:21;99226.03;;;17.70;100.00
70133;BME280;57495;49.922;7.966;2023-07-29T05:45:22;99227.03;;;17.82;100.00
70133;BME280;57495;49.922;7.966;2023-07-29T05:47:23;99225.19;;;17.69;100.00
70133;BME280;57495;49.922;7.966;2023-07-29T05:49:25;99232.88;;;17.72;100.00
70133;BME280;57495;49.922;7.966;2023-07-29T05:51:27;99227.88;;;17.76;100.00
70133;BME280;57495;49.922;7.966;2023-07-29T05:53:29;99231.63;;;17.82;100.00
70133;BME280;57495;49.922;7.966;2023-07-29T05:55:30;99234.53;;;17.67;100.00
70133;BME280;57495;49.922;7.966;2023-07-29T05:57:32;99242.03;;;17.65;100.00
70133;BME280;57495;49.922;7.966;2023-07-29T05:59:34;99233.91;;;17.65;100.00
70133;BME280;57495;49.922;7.966;2023-07-29T06:01:36;99241.00;;;17.72;100.00
70133;BME280;57495;49.922;7.966;2023-07-29T06:03:37;99222.47;;;17.76;100.00
70133;BME280;57495;49.922;7.966;2023-07-29T06:05:39;99206.25;;;17.76;100.00
70133;BME280;57495;49.922;7.966;2023-07-29T06:07:40;99204.38;;;17.76;100.00
70133;BME280;57495;49.922;7.966;2023-07-29T06:09:44;99194.41;;;17.77;100.00
70133;BME280;57495;49.922;7.966;2023-07-29T06:11:45;99193.53;;;17.76;100.00
70133;BME280;57495;49.922;7.966;2023-07-29T06:13:47;99177.72;;;17.80;100.00
70133;BME280;57495;49.922;7.966;2023-07-29T06:15:50;99163.19;;;17.81;100.00
70133;BME280;57495;49.922;7.966;2023-07-29T06:17:51;99168.19;;;17.84;100.00
70133;BME280;57495;49.922;7.966;2023-07-29T06:19:53;99183.38;;;17.85;100.00
70133;BME280;57495;49.922;7.966;2023-07-29T06:21:55;99211.66;;;17.89;100.00
70133;BME280;57495;49.922;7.966;2023-07-29T06:23:56;99230.19;;;17.92;100.00
70133;BME280;57495;49.922;7.966;2023-07-29T06:25:58;99252.44;;;17.88;100.00
70133;BME280;57495;49.922;7.966;2023-07-29T06:28:00;99252.84;;;17.78;100.00
70133;BME280;57495;49.922;7.966;2023-07-29T06:30:02;99240.59;;;17.75;100.00
70133;BME280;57495;49.922;7.966;2023-07-29T06:32:06;99225.59;;;17.73;100.00
70133;BME280;57495;49.922;7.966;2023-07-29T06:34:07;99183.13;;;17.80;100.00
70133;BME280;57495;49.922;7.966;2023-07-29T06:36:08;99154.44;;;17.86;100.00
70133;BME280;57495;49.922;7.966;2023-07-29T06:38:10;99192.31;;;17.92;100.00
70133;BME280;57495;49.922;7.966;2023-07-29T06:40:11;99218.50;;;17.99;100.00
70133;BME280;57495;49.922;7.966;2023-07-29T06:42:13;99233.94;;;18.05;100.00
70133;BME280;57495;49.922;7.966;2023-07-29T06:44:14;99246.59;;;18.11;100.00
70133;BME280;57495;49.922;7.966;2023-07-29T06:46:16;99248.91;;;18.14;100.00
70133;BME280;57495;49.922;7.966;2023-07-29T06:48:18;99257.44;;;17.98;100.00
70133;BME280;57495;49.922;7.966;2023-07-29T06:50:20;99265.34;;;17.92;100.00
70133;BME280;57495;49.922;7.966;2023-07-29T06:52:22;99255.56;;;18.05;100.00
70133;BME280;57495;49.922;7.966;2023-07-29T06:54:24;99258.06;;;18.00;100.00
70133;BME280;57495;49.922;7.966;2023-07-29T06:56:25;99255.56;;;17.98;100.00
70133;BME280;57495;49.922;7.966;2023-07-29T06:58:26;99262.88;;;17.98;100.00
70133;BME280;57495;49.922;7.966;2023-07-29T07:00:28;99267.63;;;18.09;100.00
70133;BME280;57495;49.922;7.966;2023-07-29T07:02:29;99261.81;;;18.12;100.00
70133;BME280;57495;49.922;7.966;2023-07-29T07:04:32;99263.47;;;18.13;100.00
70133;BME280;57495;49.922;7.966;2023-07-29T07:06:33;99265.97;;;18.14;100.00
70133;BME280;57495;49.922;7.966;2023-07-29T07:08:35;99272.63;;;18.12;100.00
70133;BME280;57495;49.922;7.966;2023-07-29T07:10:36;99270.13;;;18.10;100.00
70133;BME280;57495;49.922;7.966;2023-07-29T07:12:38;99263.69;;;18.05;100.00
70133;BME280;57495;49.922;7.966;2023-07-29T07:14:39;99269.28;;;18.10;100.00
70133;BME280;57495;49.922;7.966;2023-07-29T07:16:41;99260.53;;;18.08;100.00
70133;BME280;57495;49.922;7.966;2023-07-29T07:18:42;99260.13;;;18.11;100.00
70133;BME280;57495;49.922;7.966;2023-07-29T07:20:47;99260.94;;;18.18;100.00
70133;BME280;57495;49.922;7.966;2023-07-29T07:22:49;99263.00;;;18.23;100.00
70133;BME280;57495;49.922;7.966;2023-07-29T07:24:50;99258.44;;;18.23;100.00
70133;BME280;57495;49.922;7.966;2023-07-29T07:26:52;99267.81;;;18.27;100.00
70133;BME280;57495;49.922;7.966;2023-07-29T07:28:53;99274.06;;;18.21;100.00
70133;BME280;57495;49.922;7.966;2023-07-29T07:30:54;99275.97;;;18.14;100.00
70133;BME280;57495;49.922;7.966;2023-07-29T07:32:56;99280.72;;;18.25;100.00
70133;BME280;57495;49.922;7.966;2023-07-29T07:34:57;99280.69;;;18.39;100.00
70133;BME280;57495;49.922;7.966;2023-07-29T07:36:59;99277.56;;;18.42;100.00
70133;BME280;57495;49.922;7.966;2023-07-29T07:39:00;99274.56;;;18.63;100.00
70133;BME280;57495;49.922;7.966;2023-07-29T07:41:02;99274.09;;;18.86;100.00
70133;BME280;57495;49.922;7.966;2023-07-29T07:43:02;99281.59;;;18.78;100.00
70133;BME280;57495;49.922;7.966;2023-07-29T07:45:05;99282.88;;;18.75;100.00
70133;BME280;57495;49.922;7.966;2023-07-29T07:47:06;99272.88;;;18.76;100.00
70133;BME280;57495;49.922;7.966;2023-07-29T07:49:08;99275.16;;;18.72;100.00
70133;BME280;57495;49.922;7.966;2023-07-29T07:51:10;99270.66;;;19.04;100.00
70133;BME280;57495;49.922;7.966;2023-07-29T07:53:13;99272.72;;;19.16;100.00
70133;BME280;57495;49.922;7.966;2023-07-29T07:55:15;99276.06;;;19.11;100.00
70133;BME280;57495;49.922;7.966;2023-07-29T07:57:16;99275.41;;;19.16;100.00
70133;BME280;57495;49.922;7.966;2023-07-29T07:59:17;99267.09;;;19.10;100.00
70133;BME280;57495;49.922;7.966;2023-07-29T08:01:19;99275.91;;;18.99;100.00
70133;BME280;57495;49.922;7.966;2023-07-29T08:03:20;99269.59;;;19.44;100.00
70133;BME280;57495;49.922;7.966;2023-07-29T08:05:22;99279.06;;;19.60;100.00
70133;BME280;57495;49.922;7.966;2023-07-29T08:07:23;99280.53;;;19.30;100.00
70133;BME280;57495;49.922;7.966;2023-07-29T08:09:25;99281.75;;;19.35;100.00
70133;BME280;57495;49.922;7.966;2023-07-29T08:11:26;99275.84;;;19.44;100.00
70133;BME280;57495;49.922;7.966;2023-07-29T08:13:27;99273.84;;;19.33;100.00
70133;BME280;57495;49.922;7.966;2023-07-29T08:15:29;99264.09;;;19.50;100.00
70133;BME280;57495;49.922;7.966;2023-07-29T08:17:30;99264.84;;;19.64;100.00
70133;BME280;57495;49.922;7.966;2023-07-29T08:19:32;99260.97;;;19.54;100.00
70133;BME280;57495;49.922;7.966;2023-07-29T08:21:35;99265.25;;;19.68;100.00
70133;BME280;57495;49.922;7.966;2023-07-29T08:23:37;99260.72;;;19.62;100.00
70133;BME280;57495;49.922;7.966;2023-07-29T08:25:39;99265.25;;;19.68;100.00
70133;BME280;57495;49.922;7.966;2023-07-29T08:27:41;99255.13;;;19.82;100.00
70133;BME280;57495;49.922;7.966;2023-07-29T08:29:42;99274.81;;;20.21;100.00
70133;BME280;57495;49.922;7.966;2023-07-29T08:31:43;99273.59;;;20.60;100.00
70133;BME280;57495;49.922;7.966;2023-07-29T08:33:45;99270.09;;;20.90;100.00
70133;BME280;57495;49.922;7.966;2023-07-29T08:35:46;99280.59;;;20.68;100.00
70133;BME280;57495;49.922;7.966;2023-07-29T08:37:48;99276.31;;;20.79;100.00
70133;BME280;57495;49.922;7.966;2023-07-29T08:39:49;99279.66;;;20.37;100.00
70133;BME280;57495;49.922;7.966;2023-07-29T08:41:59;99271.81;;;20.29;100.00
70133;BME280;57495;49.922;7.966;2023-07-29T08:44:09;99274.22;;;20.19;100.00
70133;BME280;57495;49.922;7.966;2023-07-29T08:46:11;99271.50;;;20.19;100.00
70133;BME280;57495;49.922;7.966;2023-07-29T08:48:15;99278.16;;;20.41;100.00
70133;BME280;57495;49.922;7.966;2023-07-29T08:50:21;99274.59;;;20.41;100.00
70133;BME280;57495;49.922;7.966;2023-07-29T08:52:23;99272.97;;;20.58;100.00
70133;BME280;57495;49.922;7.966;2023-07-29T08:54:25;99280.88;;;20.60;100.00
70133;BME280;57495;49.922;7.966;2023-07-29T08:56:26;99272.38;;;20.56;100.00
70133;BME280;57495;49.922;7.966;2023-07-29T08:58:32;99277.81;;;20.56;100.00
70133;BME280;57495;49.922;7.966;2023-07-29T09:00:34;99276.44;;;20.47;100.00
70133;BME280;57495;49.922;7.966;2023-07-29T09:02:35;99271.72;;;20.61;100.00
70133;BME280;57495;49.922;7.966;2023-07-29T09:04:37;99267.94;;;21.11;100.00
70133;BME280;57495;49.922;7.966;2023-07-29T09:06:39;99276.31;;;20.79;100.00
70133;BME280;57495;49.922;7.966;2023-07-29T09:08:41;99274.00;;;20.94;100.00
70133;BME280;57495;49.922;7.966;2023-07-29T09:10:42;99277.06;;;20.86;100.00
70133;BME280;57495;49.922;7.966;2023-07-29T09:12:43;99292.00;;;20.95;100.00
70133;BME280;57495;49.922;7.966;2023-07-29T09:14:45;99286.69;;;20.82;100.00
70133;BME280;57495;49.922;7.966;2023-07-29T09:16:47;99283.25;;;20.75;100.00
70133;BME280;57495;49.922;7.966;2023-07-29T09:18:49;99278.47;;;20.52;100.00
70133;BME280;57495;49.922;7.966;2023-07-29T09:20:50;99278.63;;;20.57;100.00
70133;BME280;57495;49.922;7.966;2023-07-29T09:22:53;99280.69;;;20.61;100.00
70133;BME280;57495;49.922;7.966;2023-07-29T09:24:57;99278.16;;;20.60;100.00
70133;BME280;57495;49.922;7.966;2023-07-29T09:26:58;99271.03;;;20.84;100.00
70133;BME280;57495;49.922;7.966;2023-07-29T09:29:00;99266.69;;;21.55;100.00
70133;BME280;57495;49.922;7.966;2023-07-29T09:31:02;99258.19;;;22.23;100.00
70133;BME280;57495;49.922;7.966;2023-07-29T09:33:04;99266.22;;;22.65;100.00
70133;BME280;57495;49.922;7.966;2023-07-29T09:35:09;99262.25;;;22.44;100.00
70133;BME280;57495;49.922;7.966;2023-07-29T09:37:15;99259.25;;;22.97;100.00
70133;BME280;57495;49.922;7.966;2023-07-29T09:39:17;99264.06;;;23.19;100.00
70133;BME280;57495;49.922;7.966;2023-07-29T09:41:19;99264.00;;;23.31;100.00
70133;BME280;57495;49.922;7.966;2023-07-29T09:43:25;99256.94;;;22.77;100.00
70133;BME280;57495;49.922;7.966;2023-07-29T09:45:27;99259.28;;;22.45;100.00
70133;BME280;57495;49.922;7.966;2023-07-29T09:47:30;99238.88;;;23.29;100.00
70133;BME280;57495;49.922;7.966;2023-07-29T09:49:34;99235.16;;;23.52;98.41
70133;BME280;57495;49.922;7.966;2023-07-29T09:51:37;99244.00;;;23.42;94.52
70133;BME280;57495;49.922;7.966;2023-07-29T09:53:42;99247.16;;;23.51;95.90
70133;BME280;57495;49.922;7.966;2023-07-29T09:55:46;99254.44;;;23.45;94.94
70133;BME280;57495;49.922;7.966;2023-07-29T09:57:48;99251.28;;;23.53;97.02
70133;BME280;57495;49.922;7.966;2023-07-29T09:59:53;99255.88;;;23.19;100.00
70133;BME280;57495;49.922;7.966;2023-07-29T10:01:55;99247.50;;;23.09;98.56
70133;BME280;57495;49.922;7.966;2023-07-29T10:03:58;99258.00;;;23.17;96.28
70133;BME280;57495;49.922;7.966;2023-07-29T10:06:02;99260.56;;;22.54;96.53
70133;BME280;57495;49.922;7.966;2023-07-29T10:08:04;99256.28;;;22.58;100.00
70133;BME280;57495;49.922;7.966;2023-07-29T10:10:07;99251.72;;;22.76;99.60
70133;BME280;57495;49.922;7.966;2023-07-29T10:12:09;99256.25;;;22.70;100.00
70133;BME280;57495;49.922;7.966;2023-07-29T10:14:11;99261.13;;;22.68;100.00
70133;BME280;57495;49.922;7.966;2023-07-29T10:16:13;99266.50;;;22.51;100.00
70133;BME280;57495;49.922;7.966;2023-07-29T10:18:16;99257.22;;;22.52;100.00
70133;BME280;57495;49.922;7.966;2023-07-29T10:20:18;99266.19;;;22.36;100.00
70133;BME280;57495;49.922;7.966;2023-07-29T10:22:21;99273.88;;;22.27;100.00
70133;BME280;57495;49.922;7.966;2023-07-29T10:24:29;99276.91;;;22.07;100.00
70133;BME280;57495;49.922;7.966;2023-07-29T10:26:31;99273.16;;;22.08;100.00
70133;BME280;57495;49.922;7.966;2023-07-29T10:28:39;99274.78;;;21.97;100.00
70133;BME280;57495;49.922;7.966;2023-07-29T10:30:41;99273.13;;;21.85;100.00
70133;BME280;57495;49.922;7.966;2023-07-29T10:32:44;99266.59;;;21.74;100.00
70133;BME280;57495;49.922;7.966;2023-07-29T10:34:45;99253.47;;;21.83;100.00
70133;BME280;57495;49.922;7.966;2023-07-29T10:36:49;99245.75;;;21.91;100.00
70133;BME280;57495;49.922;7.966;2023-07-29T10:38:51;99237.38;;;21.93;100.00